This is the latest recevied weather packets stored in our database for station/object KY0TEQ-13. If no packets are shown the sender has not sent any weather packets the latest 10 day(s).
| Time | Temp. | Humidity | Pressure | Rain* | Wind** | Luminosity | Snow |
|---|---|---|---|---|---|---|---|
| 1777384759 | 4.44° C | 39% | 1303.8 hPa | 0 mm | - | 139 W/m² | - |
| 1777383846 | 2.78° C | 51% | 1303.7 hPa | 0 mm | - | 101 W/m² | - |
| 1777382935 | 1.67° C | 54% | 1303.3 hPa | 0 mm | - | 67 W/m² | - |
| 1777382630 | 1.11° C | 56% | 1303.3 hPa | 0 mm | - | 60 W/m² | - |
| 1777382326 | -0.56° C | 62% | 1303.3 hPa | 0 mm | - | 52 W/m² | - |
| 1777378988 | -2.22° C | 63% | 1302.2 hPa | 0 mm | - | 4 W/m² | - |
| 1777377770 | -3.33° C | 67% | 1302 hPa | 0 mm | - | 0 W/m² | - |
| 1777377160 | -2.78° C | 66% | 1301.7 hPa | 0 mm | - | 0 W/m² | - |
| 1777375946 | -2.22° C | 64% | 1301.3 hPa | 0 mm | - | 0 W/m² | - |
| 1777375641 | -2.22° C | 62% | 1301.3 hPa | 0 mm | - | 0 W/m² | - |
| 1777375335 | -1.67° C | 61% | 1301.5 hPa | 0 mm | - | 0 W/m² | - |
| 1777375033 | -1.11° C | 57% | 1301.3 hPa | 0 mm | - | 0 W/m² | - |
| 1777374728 | 0° C | 54% | 1301.5 hPa | 0 mm | - | 0 W/m² | - |
| 1777372600 | -1.11° C | 57% | 1301.1 hPa | 0 mm | - | 0 W/m² | - |
| 1777372300 | -1.67° C | 60% | 1301 hPa | 0 mm | - | 0 W/m² | - |
| 1777371998 | -1.67° C | 60% | 1301.1 hPa | 0 mm | - | 0 W/m² | - |
| 1777371694 | -1.67° C | 59% | 1301 hPa | 0 mm | - | 0 W/m² | - |
| 1777371391 | -3.33° C | 67% | 1301.1 hPa | 0 mm | - | 0 W/m² | - |
| 1777371088 | -2.78° C | 66% | 1300.7 hPa | 0 mm | - | 0 W/m² | - |
| 1777370784 | -2.22° C | 65% | 1301 hPa | 0 mm | - | 0 W/m² | - |
| 1777370481 | -2.78° C | 68% | 1300.9 hPa | 0 mm | - | 0 W/m² | - |
| 1777370180 | -2.78° C | 67% | 1300.7 hPa | 0 mm | - | 0 W/m² | - |
| 1777369873 | -2.78° C | 68% | 1300.7 hPa | 0 mm | - | 0 W/m² | - |
| 1777369264 | -2.78° C | 68% | 1300.7 hPa | 0 mm | - | 0 W/m² | - |
| 1777368962 | -2.78° C | 69% | 1300.7 hPa | 0 mm | - | 0 W/m² | - |
* Rain latest hour (hover to see other rain measurements)
** Current wind speed in m/s (hover to see current wind gust speed)